sensor_id;sensor_type;location;lat;lon;timestamp;P1;durP1;ratioP1;P2;durP2;ratioP2
67191;SDS011;54120;53.504;49.426;2023-11-19T00:01:42;9.23;;;5.60;;
67191;SDS011;54120;53.504;49.426;2023-11-19T00:04:08;9.10;;;5.38;;
67191;SDS011;54120;53.504;49.426;2023-11-19T00:06:35;7.38;;;5.20;;
67191;SDS011;54120;53.504;49.426;2023-11-19T00:09:01;9.95;;;5.50;;
67191;SDS011;54120;53.504;49.426;2023-11-19T00:11:29;10.15;;;5.30;;
67191;SDS011;54120;53.504;49.426;2023-11-19T00:13:55;11.00;;;5.60;;
67191;SDS011;54120;53.504;49.426;2023-11-19T00:16:22;12.50;;;5.28;;
67191;SDS011;54120;53.504;49.426;2023-11-19T00:18:49;6.68;;;4.53;;
67191;SDS011;54120;53.504;49.426;2023-11-19T00:21:15;6.95;;;5.03;;
67191;SDS011;54120;53.504;49.426;2023-11-19T00:23:42;11.00;;;4.82;;
67191;SDS011;54120;53.504;49.426;2023-11-19T00:26:09;9.18;;;4.80;;
67191;SDS011;54120;53.504;49.426;2023-11-19T00:28:35;7.95;;;4.80;;
67191;SDS011;54120;53.504;49.426;2023-11-19T00:31:04;7.10;;;5.22;;
67191;SDS011;54120;53.504;49.426;2023-11-19T00:33:30;8.02;;;4.68;;
67191;SDS011;54120;53.504;49.426;2023-11-19T00:35:56;6.05;;;4.63;;
67191;SDS011;54120;53.504;49.426;2023-11-19T00:38:23;13.02;;;5.35;;
67191;SDS011;54120;53.504;49.426;2023-11-19T00:40:49;8.55;;;5.30;;
67191;SDS011;54120;53.504;49.426;2023-11-19T00:43:17;7.88;;;4.68;;
67191;SDS011;54120;53.504;49.426;2023-11-19T00:45:44;8.13;;;4.82;;
67191;SDS011;54120;53.504;49.426;2023-11-19T00:48:10;7.43;;;4.70;;
67191;SDS011;54120;53.504;49.426;2023-11-19T00:50:36;7.05;;;4.65;;
67191;SDS011;54120;53.504;49.426;2023-11-19T00:53:02;5.43;;;4.40;;
67191;SDS011;54120;53.504;49.426;2023-11-19T00:55:29;5.95;;;5.00;;
67191;SDS011;54120;53.504;49.426;2023-11-19T00:57:55;13.95;;;5.05;;
67191;SDS011;54120;53.504;49.426;2023-11-19T01:00:21;9.68;;;5.13;;
67191;SDS011;54120;53.504;49.426;2023-11-19T01:02:49;10.25;;;5.10;;
67191;SDS011;54120;53.504;49.426;2023-11-19T01:05:16;6.20;;;4.80;;
67191;SDS011;54120;53.504;49.426;2023-11-19T01:07:43;9.98;;;4.75;;
67191;SDS011;54120;53.504;49.426;2023-11-19T01:10:09;10.90;;;4.93;;
67191;SDS011;54120;53.504;49.426;2023-11-19T01:12:35;5.82;;;4.55;;
67191;SDS011;54120;53.504;49.426;2023-11-19T01:15:01;7.85;;;5.00;;
67191;SDS011;54120;53.504;49.426;2023-11-19T01:17:27;11.20;;;5.07;;
67191;SDS011;54120;53.504;49.426;2023-11-19T01:19:53;25.48;;;10.40;;
67191;SDS011;54120;53.504;49.426;2023-11-19T01:22:20;13.43;;;7.43;;
67191;SDS011;54120;53.504;49.426;2023-11-19T01:24:46;11.38;;;5.45;;
67191;SDS011;54120;53.504;49.426;2023-11-19T01:27:12;14.75;;;5.95;;
67191;SDS011;54120;53.504;49.426;2023-11-19T01:29:38;10.18;;;4.80;;
67191;SDS011;54120;53.504;49.426;2023-11-19T01:32:05;11.13;;;5.30;;
67191;SDS011;54120;53.504;49.426;2023-11-19T01:34:31;8.70;;;4.80;;
67191;SDS011;54120;53.504;49.426;2023-11-19T01:36:57;8.40;;;5.60;;
67191;SDS011;54120;53.504;49.426;2023-11-19T01:39:23;9.38;;;5.40;;
67191;SDS011;54120;53.504;49.426;2023-11-19T01:41:49;8.45;;;5.22;;
67191;SDS011;54120;53.504;49.426;2023-11-19T01:44:15;12.35;;;5.22;;
67191;SDS011;54120;53.504;49.426;2023-11-19T01:46:42;6.38;;;4.82;;
67191;SDS011;54120;53.504;49.426;2023-11-19T01:49:11;6.45;;;4.70;;
67191;SDS011;54120;53.504;49.426;2023-11-19T01:51:40;5.80;;;5.03;;
67191;SDS011;54120;53.504;49.426;2023-11-19T01:54:07;6.38;;;4.90;;
67191;SDS011;54120;53.504;49.426;2023-11-19T01:56:35;7.82;;;4.72;;
67191;SDS011;54120;53.504;49.426;2023-11-19T01:59:06;42.95;;;22.73;;
67191;SDS011;54120;53.504;49.426;2023-11-19T02:01:35;10.07;;;6.93;;
67191;SDS011;54120;53.504;49.426;2023-11-19T02:04:08;29.95;;;16.58;;
67191;SDS011;54120;53.504;49.426;2023-11-19T02:06:36;10.77;;;5.57;;
67191;SDS011;54120;53.504;49.426;2023-11-19T02:09:06;7.63;;;5.18;;
67191;SDS011;54120;53.504;49.426;2023-11-19T02:11:34;14.57;;;5.10;;
67191;SDS011;54120;53.504;49.426;2023-11-19T02:14:00;10.50;;;5.00;;
67191;SDS011;54120;53.504;49.426;2023-11-19T02:16:29;10.30;;;5.03;;
67191;SDS011;54120;53.504;49.426;2023-11-19T02:18:55;9.32;;;4.90;;
67191;SDS011;54120;53.504;49.426;2023-11-19T02:21:21;15.05;;;5.18;;
67191;SDS011;54120;53.504;49.426;2023-11-19T02:23:48;9.48;;;4.93;;
67191;SDS011;54120;53.504;49.426;2023-11-19T02:26:37;10.77;;;5.18;;
67191;SDS011;54120;53.504;49.426;2023-11-19T02:29:07;8.15;;;4.53;;
67191;SDS011;54120;53.504;49.426;2023-11-19T02:31:33;8.88;;;5.13;;
67191;SDS011;54120;53.504;49.426;2023-11-19T02:34:02;6.22;;;4.57;;
67191;SDS011;54120;53.504;49.426;2023-11-19T02:36:28;8.98;;;4.97;;
67191;SDS011;54120;53.504;49.426;2023-11-19T02:38:54;7.03;;;4.45;;
67191;SDS011;54120;53.504;49.426;2023-11-19T02:41:21;7.60;;;4.55;;
67191;SDS011;54120;53.504;49.426;2023-11-19T02:43:47;6.85;;;4.50;;
67191;SDS011;54120;53.504;49.426;2023-11-19T02:46:14;7.85;;;4.35;;
67191;SDS011;54120;53.504;49.426;2023-11-19T02:48:43;8.82;;;5.40;;
67191;SDS011;54120;53.504;49.426;2023-11-19T02:51:11;6.72;;;5.10;;
67191;SDS011;54120;53.504;49.426;2023-11-19T02:53:38;7.80;;;4.75;;
67191;SDS011;54120;53.504;49.426;2023-11-19T02:56:05;9.90;;;4.57;;
67191;SDS011;54120;53.504;49.426;2023-11-19T02:58:42;8.98;;;5.05;;
67191;SDS011;54120;53.504;49.426;2023-11-19T03:01:10;7.50;;;4.70;;
67191;SDS011;54120;53.504;49.426;2023-11-19T03:03:38;9.10;;;4.80;;
67191;SDS011;54120;53.504;49.426;2023-11-19T03:06:06;6.65;;;4.80;;
67191;SDS011;54120;53.504;49.426;2023-11-19T03:08:34;11.40;;;5.00;;
67191;SDS011;54120;53.504;49.426;2023-11-19T03:11:01;12.98;;;5.65;;
67191;SDS011;54120;53.504;49.426;2023-11-19T03:13:27;22.33;;;5.90;;
67191;SDS011;54120;53.504;49.426;2023-11-19T03:15:53;9.07;;;5.15;;
67191;SDS011;54120;53.504;49.426;2023-11-19T03:18:20;18.08;;;5.72;;
67191;SDS011;54120;53.504;49.426;2023-11-19T03:20:46;12.43;;;5.35;;
67191;SDS011;54120;53.504;49.426;2023-11-19T03:23:12;13.75;;;5.72;;
67191;SDS011;54120;53.504;49.426;2023-11-19T03:25:38;12.60;;;5.50;;
67191;SDS011;54120;53.504;49.426;2023-11-19T03:28:04;29.00;;;6.57;;
67191;SDS011;54120;53.504;49.426;2023-11-19T03:30:31;14.68;;;5.80;;
67191;SDS011;54120;53.504;49.426;2023-11-19T03:32:58;13.00;;;6.47;;
67191;SDS011;54120;53.504;49.426;2023-11-19T03:35:26;13.77;;;5.38;;
67191;SDS011;54120;53.504;49.426;2023-11-19T03:37:53;9.80;;;5.05;;
67191;SDS011;54120;53.504;49.426;2023-11-19T03:40:19;9.52;;;5.20;;
67191;SDS011;54120;53.504;49.426;2023-11-19T03:42:46;7.82;;;4.68;;
67191;SDS011;54120;53.504;49.426;2023-11-19T03:45:12;8.95;;;5.05;;
67191;SDS011;54120;53.504;49.426;2023-11-19T03:47:40;11.77;;;4.82;;
67191;SDS011;54120;53.504;49.426;2023-11-19T03:50:06;10.98;;;5.40;;
67191;SDS011;54120;53.504;49.426;2023-11-19T03:52:34;8.48;;;5.25;;
67191;SDS011;54120;53.504;49.426;2023-11-19T03:55:01;10.02;;;5.13;;
67191;SDS011;54120;53.504;49.426;2023-11-19T03:57:28;10.63;;;5.70;;
67191;SDS011;54120;53.504;49.426;2023-11-19T03:59:55;10.32;;;5.13;;
67191;SDS011;54120;53.504;49.426;2023-11-19T04:02:21;9.07;;;5.38;;
67191;SDS011;54120;53.504;49.426;2023-11-19T04:04:47;9.35;;;5.07;;
67191;SDS011;54120;53.504;49.426;2023-11-19T04:07:14;9.27;;;5.15;;
67191;SDS011;54120;53.504;49.426;2023-11-19T04:09:40;11.75;;;5.20;;
67191;SDS011;54120;53.504;49.426;2023-11-19T04:12:06;7.65;;;5.10;;
67191;SDS011;54120;53.504;49.426;2023-11-19T04:14:33;8.88;;;5.07;;
67191;SDS011;54120;53.504;49.426;2023-11-19T04:16:59;14.68;;;5.38;;
67191;SDS011;54120;53.504;49.426;2023-11-19T04:19:25;7.20;;;5.00;;
67191;SDS011;54120;53.504;49.426;2023-11-19T04:21:51;9.75;;;4.95;;
67191;SDS011;54120;53.504;49.426;2023-11-19T04:24:18;13.95;;;5.32;;
67191;SDS011;54120;53.504;49.426;2023-11-19T04:26:44;11.18;;;5.63;;
67191;SDS011;54120;53.504;49.426;2023-11-19T04:29:12;11.48;;;5.30;;
67191;SDS011;54120;53.504;49.426;2023-11-19T04:31:40;12.32;;;5.90;;
67191;SDS011;54120;53.504;49.426;2023-11-19T04:34:06;14.13;;;5.22;;
67191;SDS011;54120;53.504;49.426;2023-11-19T04:36:33;12.32;;;5.30;;
67191;SDS011;54120;53.504;49.426;2023-11-19T04:39:00;8.40;;;4.65;;
67191;SDS011;54120;53.504;49.426;2023-11-19T04:41:26;11.13;;;4.57;;
67191;SDS011;54120;53.504;49.426;2023-11-19T04:43:53;8.80;;;4.20;;
67191;SDS011;54120;53.504;49.426;2023-11-19T04:46:19;12.15;;;4.47;;
67191;SDS011;54120;53.504;49.426;2023-11-19T04:48:46;9.15;;;4.30;;
67191;SDS011;54120;53.504;49.426;2023-11-19T04:51:13;14.27;;;4.05;;
67191;SDS011;54120;53.504;49.426;2023-11-19T04:53:39;4.82;;;3.30;;
67191;SDS011;54120;53.504;49.426;2023-11-19T04:56:08;7.43;;;3.45;;
67191;SDS011;54120;53.504;49.426;2023-11-19T04:58:35;9.10;;;3.58;;
67191;SDS011;54120;53.504;49.426;2023-11-19T05:01:03;6.30;;;3.60;;
67191;SDS011;54120;53.504;49.426;2023-11-19T05:03:30;3.85;;;3.25;;
67191;SDS011;54120;53.504;49.426;2023-11-19T05:05:57;5.85;;;3.42;;
67191;SDS011;54120;53.504;49.426;2023-11-19T05:08:23;8.35;;;3.60;;
67191;SDS011;54120;53.504;49.426;2023-11-19T05:10:49;6.55;;;3.50;;
67191;SDS011;54120;53.504;49.426;2023-11-19T05:13:16;7.45;;;3.50;;
67191;SDS011;54120;53.504;49.426;2023-11-19T05:15:42;5.78;;;2.90;;
67191;SDS011;54120;53.504;49.426;2023-11-19T05:18:08;5.03;;;3.17;;
67191;SDS011;54120;53.504;49.426;2023-11-19T05:20:34;6.57;;;3.22;;
67191;SDS011;54120;53.504;49.426;2023-11-19T05:23:00;3.95;;;3.03;;
67191;SDS011;54120;53.504;49.426;2023-11-19T05:25:26;4.55;;;2.90;;
67191;SDS011;54120;53.504;49.426;2023-11-19T05:27:53;4.97;;;3.00;;
67191;SDS011;54120;53.504;49.426;2023-11-19T05:30:19;12.35;;;3.38;;
67191;SDS011;54120;53.504;49.426;2023-11-19T05:32:45;7.20;;;3.03;;
67191;SDS011;54120;53.504;49.426;2023-11-19T05:35:11;8.20;;;3.55;;
67191;SDS011;54120;53.504;49.426;2023-11-19T05:37:37;8.57;;;3.28;;
67191;SDS011;54120;53.504;49.426;2023-11-19T05:40:04;6.53;;;3.00;;
67191;SDS011;54120;53.504;49.426;2023-11-19T05:42:42;9.32;;;3.55;;
67191;SDS011;54120;53.504;49.426;2023-11-19T05:45:10;4.82;;;3.17;;
67191;SDS011;54120;53.504;49.426;2023-11-19T05:47:38;7.20;;;3.42;;
67191;SDS011;54120;53.504;49.426;2023-11-19T05:50:04;4.20;;;3.22;;
67191;SDS011;54120;53.504;49.426;2023-11-19T05:52:31;3.47;;;3.17;;
67191;SDS011;54120;53.504;49.426;2023-11-19T05:55:02;7.38;;;3.80;;
67191;SDS011;54120;53.504;49.426;2023-11-19T05:57:36;4.68;;;3.47;;
67191;SDS011;54120;53.504;49.426;2023-11-19T06:00:03;11.55;;;3.80;;
67191;SDS011;54120;53.504;49.426;2023-11-19T06:02:34;6.57;;;3.85;;
67191;SDS011;54120;53.504;49.426;2023-11-19T06:05:02;4.63;;;3.50;;
67191;SDS011;54120;53.504;49.426;2023-11-19T06:07:31;8.43;;;3.72;;
67191;SDS011;54120;53.504;49.426;2023-11-19T06:09:57;9.80;;;3.85;;
67191;SDS011;54120;53.504;49.426;2023-11-19T06:12:24;8.48;;;4.28;;
67191;SDS011;54120;53.504;49.426;2023-11-19T06:14:50;6.07;;;3.97;;
67191;SDS011;54120;53.504;49.426;2023-11-19T06:17:16;5.50;;;3.28;;
67191;SDS011;54120;53.504;49.426;2023-11-19T06:19:42;7.03;;;3.80;;
67191;SDS011;54120;53.504;49.426;2023-11-19T06:22:08;6.78;;;3.53;;
67191;SDS011;54120;53.504;49.426;2023-11-19T06:24:34;5.75;;;3.72;;
67191;SDS011;54120;53.504;49.426;2023-11-19T06:27:00;4.70;;;3.45;;
67191;SDS011;54120;53.504;49.426;2023-11-19T06:29:26;11.23;;;3.80;;
67191;SDS011;54120;53.504;49.426;2023-11-19T06:31:52;10.35;;;3.70;;
67191;SDS011;54120;53.504;49.426;2023-11-19T06:34:18;8.75;;;3.78;;
67191;SDS011;54120;53.504;49.426;2023-11-19T06:36:44;5.10;;;3.58;;
67191;SDS011;54120;53.504;49.426;2023-11-19T06:39:10;8.88;;;4.00;;
67191;SDS011;54120;53.504;49.426;2023-11-19T06:41:36;5.93;;;3.80;;
67191;SDS011;54120;53.504;49.426;2023-11-19T06:44:04;8.20;;;4.03;;
67191;SDS011;54120;53.504;49.426;2023-11-19T06:46:30;6.75;;;3.53;;
67191;SDS011;54120;53.504;49.426;2023-11-19T06:48:57;7.45;;;3.80;;
67191;SDS011;54120;53.504;49.426;2023-11-19T06:51:24;5.28;;;4.10;;
67191;SDS011;54120;53.504;49.426;2023-11-19T06:53:50;6.60;;;3.60;;
67191;SDS011;54120;53.504;49.426;2023-11-19T06:56:20;7.38;;;3.80;;
67191;SDS011;54120;53.504;49.426;2023-11-19T06:58:47;6.82;;;3.67;;
67191;SDS011;54120;53.504;49.426;2023-11-19T07:01:14;5.43;;;3.72;;
67191;SDS011;54120;53.504;49.426;2023-11-19T07:03:41;5.38;;;3.42;;
67191;SDS011;54120;53.504;49.426;2023-11-19T07:06:07;6.00;;;4.05;;
67191;SDS011;54120;53.504;49.426;2023-11-19T07:08:34;9.20;;;5.07;;
67191;SDS011;54120;53.504;49.426;2023-11-19T07:11:00;8.65;;;3.88;;
67191;SDS011;54120;53.504;49.426;2023-11-19T07:13:26;7.13;;;3.90;;
67191;SDS011;54120;53.504;49.426;2023-11-19T07:15:53;6.43;;;4.25;;
67191;SDS011;54120;53.504;49.426;2023-11-19T07:18:21;6.90;;;4.10;;
67191;SDS011;54120;53.504;49.426;2023-11-19T07:20:48;5.30;;;3.88;;
67191;SDS011;54120;53.504;49.426;2023-11-19T07:23:14;4.88;;;3.72;;
67191;SDS011;54120;53.504;49.426;2023-11-19T07:25:43;5.70;;;4.00;;
67191;SDS011;54120;53.504;49.426;2023-11-19T07:28:12;7.60;;;4.60;;
67191;SDS011;54120;53.504;49.426;2023-11-19T07:30:38;7.75;;;4.60;;
67191;SDS011;54120;53.504;49.426;2023-11-19T07:33:05;7.47;;;5.50;;
67191;SDS011;54120;53.504;49.426;2023-11-19T07:35:31;8.43;;;4.95;;
67191;SDS011;54120;53.504;49.426;2023-11-19T07:37:57;10.10;;;4.72;;
67191;SDS011;54120;53.504;49.426;2023-11-19T07:40:24;10.63;;;5.88;;
67191;SDS011;54120;53.504;49.426;2023-11-19T07:42:50;11.63;;;6.25;;
67191;SDS011;54120;53.504;49.426;2023-11-19T07:45:16;7.07;;;6.28;;
67191;SDS011;54120;53.504;49.426;2023-11-19T07:47:43;8.13;;;7.05;;
67191;SDS011;54120;53.504;49.426;2023-11-19T07:50:13;10.98;;;7.97;;
67191;SDS011;54120;53.504;49.426;2023-11-19T07:52:42;12.43;;;7.65;;
67191;SDS011;54120;53.504;49.426;2023-11-19T07:55:08;9.75;;;7.03;;
67191;SDS011;54120;53.504;49.426;2023-11-19T07:57:34;8.65;;;7.30;;
67191;SDS011;54120;53.504;49.426;2023-11-19T08:00:01;10.85;;;6.72;;
67191;SDS011;54120;53.504;49.426;2023-11-19T08:02:29;11.38;;;5.80;;
67191;SDS011;54120;53.504;49.426;2023-11-19T08:04:55;8.70;;;5.03;;
67191;SDS011;54120;53.504;49.426;2023-11-19T08:07:21;12.45;;;5.80;;
67191;SDS011;54120;53.504;49.426;2023-11-19T08:09:48;8.57;;;5.30;;
67191;SDS011;54120;53.504;49.426;2023-11-19T08:12:15;6.20;;;5.30;;
67191;SDS011;54120;53.504;49.426;2023-11-19T08:14:43;10.02;;;4.90;;
67191;SDS011;54120;53.504;49.426;2023-11-19T08:17:09;6.28;;;5.00;;
67191;SDS011;54120;53.504;49.426;2023-11-19T08:19:36;10.85;;;5.40;;
67191;SDS011;54120;53.504;49.426;2023-11-19T08:22:02;8.23;;;6.13;;
67191;SDS011;54120;53.504;49.426;2023-11-19T08:24:31;11.85;;;6.40;;
67191;SDS011;54120;53.504;49.426;2023-11-19T08:26:57;13.65;;;6.70;;
67191;SDS011;54120;53.504;49.426;2023-11-19T08:29:24;7.45;;;6.65;;
67191;SDS011;54120;53.504;49.426;2023-11-19T08:31:50;14.00;;;6.88;;
67191;SDS011;54120;53.504;49.426;2023-11-19T08:34:16;13.75;;;6.75;;
67191;SDS011;54120;53.504;49.426;2023-11-19T08:36:44;9.00;;;6.85;;
67191;SDS011;54120;53.504;49.426;2023-11-19T08:39:10;8.82;;;7.40;;
67191;SDS011;54120;53.504;49.426;2023-11-19T08:41:37;9.77;;;6.95;;
67191;SDS011;54120;53.504;49.426;2023-11-19T08:44:05;10.02;;;6.70;;
67191;SDS011;54120;53.504;49.426;2023-11-19T08:46:31;12.23;;;7.00;;
67191;SDS011;54120;53.504;49.426;2023-11-19T08:48:58;15.68;;;7.60;;
67191;SDS011;54120;53.504;49.426;2023-11-19T08:51:24;7.53;;;6.70;;
67191;SDS011;54120;53.504;49.426;2023-11-19T08:53:51;10.10;;;6.97;;
67191;SDS011;54120;53.504;49.426;2023-11-19T08:56:17;9.70;;;6.75;;
67191;SDS011;54120;53.504;49.426;2023-11-19T08:58:43;10.27;;;6.50;;
67191;SDS011;54120;53.504;49.426;2023-11-19T09:01:09;9.10;;;6.40;;
67191;SDS011;54120;53.504;49.426;2023-11-19T09:03:35;8.93;;;6.13;;
67191;SDS011;54120;53.504;49.426;2023-11-19T09:06:02;7.25;;;6.30;;
67191;SDS011;54120;53.504;49.426;2023-11-19T09:08:29;16.33;;;6.55;;
67191;SDS011;54120;53.504;49.426;2023-11-19T09:10:55;13.80;;;7.20;;
67191;SDS011;54120;53.504;49.426;2023-11-19T09:13:21;11.48;;;6.68;;
67191;SDS011;54120;53.504;49.426;2023-11-19T09:15:47;9.18;;;6.30;;
67191;SDS011;54120;53.504;49.426;2023-11-19T09:18:13;12.20;;;5.68;;
67191;SDS011;54120;53.504;49.426;2023-11-19T09:20:39;7.05;;;5.70;;
67191;SDS011;54120;53.504;49.426;2023-11-19T09:23:05;9.48;;;5.93;;
67191;SDS011;54120;53.504;49.426;2023-11-19T09:25:33;8.10;;;6.18;;
67191;SDS011;54120;53.504;49.426;2023-11-19T09:27:59;7.65;;;5.55;;
67191;SDS011;54120;53.504;49.426;2023-11-19T09:30:25;11.23;;;7.55;;
67191;SDS011;54120;53.504;49.426;2023-11-19T09:32:51;7.20;;;5.22;;
67191;SDS011;54120;53.504;49.426;2023-11-19T09:35:17;9.18;;;6.18;;
67191;SDS011;54120;53.504;49.426;2023-11-19T09:37:43;9.05;;;5.63;;
67191;SDS011;54120;53.504;49.426;2023-11-19T09:40:09;7.93;;;5.78;;
67191;SDS011;54120;53.504;49.426;2023-11-19T09:42:42;10.43;;;5.70;;
67191;SDS011;54120;53.504;49.426;2023-11-19T09:45:14;7.65;;;5.35;;
67191;SDS011;54120;53.504;49.426;2023-11-19T09:47:45;8.38;;;5.40;;
67191;SDS011;54120;53.504;49.426;2023-11-19T09:50:14;18.27;;;6.13;;
67191;SDS011;54120;53.504;49.426;2023-11-19T09:52:44;7.72;;;6.35;;
67191;SDS011;54120;53.504;49.426;2023-11-19T09:55:12;11.30;;;6.57;;
67191;SDS011;54120;53.504;49.426;2023-11-19T09:57:39;9.57;;;6.72;;
67191;SDS011;54120;53.504;49.426;2023-11-19T10:00:07;9.13;;;6.45;;
67191;SDS011;54120;53.504;49.426;2023-11-19T10:02:37;7.55;;;6.00;;
67191;SDS011;54120;53.504;49.426;2023-11-19T10:05:05;10.48;;;6.75;;
67191;SDS011;54120;53.504;49.426;2023-11-19T10:07:33;10.10;;;6.80;;
67191;SDS011;54120;53.504;49.426;2023-11-19T10:10:00;12.98;;;7.00;;
67191;SDS011;54120;53.504;49.426;2023-11-19T10:12:27;10.77;;;6.68;;
67191;SDS011;54120;53.504;49.426;2023-11-19T10:17:07;10.63;;;6.78;;
67191;SDS011;54120;53.504;49.426;2023-11-19T10:19:33;11.45;;;7.55;;
67191;SDS011;54120;53.504;49.426;2023-11-19T10:22:03;11.00;;;7.90;;
67191;SDS011;54120;53.504;49.426;2023-11-19T10:24:33;11.32;;;8.00;;
67191;SDS011;54120;53.504;49.426;2023-11-19T10:27:03;10.63;;;8.13;;
67191;SDS011;54120;53.504;49.426;2023-11-19T10:29:36;12.75;;;7.70;;
67191;SDS011;54120;53.504;49.426;2023-11-19T10:32:03;15.85;;;8.85;;
67191;SDS011;54120;53.504;49.426;2023-11-19T10:34:30;9.95;;;8.10;;
67191;SDS011;54120;53.504;49.426;2023-11-19T10:36:56;11.60;;;8.25;;
67191;SDS011;54120;53.504;49.426;2023-11-19T10:39:22;9.60;;;8.27;;
67191;SDS011;54120;53.504;49.426;2023-11-19T10:41:50;11.05;;;8.30;;
67191;SDS011;54120;53.504;49.426;2023-11-19T10:44:49;15.25;;;8.65;;
67191;SDS011;54120;53.504;49.426;2023-11-19T10:47:09;11.80;;;9.02;;
67191;SDS011;54120;53.504;49.426;2023-11-19T10:49:37;13.15;;;9.30;;
67191;SDS011;54120;53.504;49.426;2023-11-19T10:52:05;10.23;;;8.82;;
67191;SDS011;54120;53.504;49.426;2023-11-19T10:54:34;12.15;;;9.30;;
67191;SDS011;54120;53.504;49.426;2023-11-19T10:57:02;23.15;;;10.10;;
67191;SDS011;54120;53.504;49.426;2023-11-19T10:59:32;17.55;;;11.43;;
67191;SDS011;54120;53.504;49.426;2023-11-19T11:01:58;15.23;;;9.43;;
67191;SDS011;54120;53.504;49.426;2023-11-19T11:04:31;14.98;;;10.27;;
67191;SDS011;54120;53.504;49.426;2023-11-19T11:07:05;14.68;;;10.48;;
67191;SDS011;54120;53.504;49.426;2023-11-19T11:09:33;12.43;;;9.93;;
67191;SDS011;54120;53.504;49.426;2023-11-19T11:12:00;13.40;;;9.77;;
67191;SDS011;54120;53.504;49.426;2023-11-19T11:14:29;14.73;;;10.45;;
67191;SDS011;54120;53.504;49.426;2023-11-19T11:16:58;15.52;;;10.00;;
67191;SDS011;54120;53.504;49.426;2023-11-19T11:19:24;25.08;;;10.25;;
67191;SDS011;54120;53.504;49.426;2023-11-19T11:21:52;11.70;;;9.73;;
67191;SDS011;54120;53.504;49.426;2023-11-19T11:37:39;19.73;;;9.60;;
67191;SDS011;54120;53.504;49.426;2023-11-19T11:40:17;17.10;;;9.20;;
67191;SDS011;54120;53.504;49.426;2023-11-19T11:42:49;24.73;;;10.25;;
67191;SDS011;54120;53.504;49.426;2023-11-19T11:45:22;14.75;;;10.40;;
67191;SDS011;54120;53.504;49.426;2023-11-19T11:50:49;11.98;;;9.85;;
67191;SDS011;54120;53.504;49.426;2023-11-19T11:53:18;13.23;;;10.30;;
67191;SDS011;54120;53.504;49.426;2023-11-19T11:58:18;16.45;;;9.65;;
67191;SDS011;54120;53.504;49.426;2023-11-19T12:00:57;19.77;;;11.25;;
67191;SDS011;54120;53.504;49.426;2023-11-19T12:03:26;13.65;;;10.02;;
67191;SDS011;54120;53.504;49.426;2023-11-19T12:05:54;13.50;;;10.40;;
67191;SDS011;54120;53.504;49.426;2023-11-19T12:08:24;12.63;;;10.48;;
67191;SDS011;54120;53.504;49.426;2023-11-19T12:10:53;14.57;;;10.25;;
67191;SDS011;54120;53.504;49.426;2023-11-19T12:13:23;15.10;;;10.00;;
67191;SDS011;54120;53.504;49.426;2023-11-19T12:18:28;15.77;;;10.45;;
67191;SDS011;54120;53.504;49.426;2023-11-19T12:20:55;15.25;;;10.50;;
67191;SDS011;54120;53.504;49.426;2023-11-19T12:23:22;16.27;;;10.60;;
67191;SDS011;54120;53.504;49.426;2023-11-19T12:25:49;17.45;;;10.25;;
67191;SDS011;54120;53.504;49.426;2023-11-19T12:28:16;15.20;;;9.93;;
67191;SDS011;54120;53.504;49.426;2023-11-19T12:30:43;24.13;;;10.95;;
67191;SDS011;54120;53.504;49.426;2023-11-19T12:33:14;14.07;;;10.32;;
67191;SDS011;54120;53.504;49.426;2023-11-19T12:35:44;13.52;;;10.13;;
67191;SDS011;54120;53.504;49.426;2023-11-19T12:38:20;16.52;;;11.02;;
67191;SDS011;54120;53.504;49.426;2023-11-19T12:41:07;16.35;;;10.23;;
67191;SDS011;54120;53.504;49.426;2023-11-19T12:43:36;12.65;;;10.15;;
67191;SDS011;54120;53.504;49.426;2023-11-19T12:46:16;15.63;;;10.70;;
67191;SDS011;54120;53.504;49.426;2023-11-19T12:48:49;15.70;;;10.55;;
67191;SDS011;54120;53.504;49.426;2023-11-19T12:51:17;16.50;;;11.77;;
67191;SDS011;54120;53.504;49.426;2023-11-19T12:56:18;18.52;;;10.88;;
67191;SDS011;54120;53.504;49.426;2023-11-19T12:58:44;16.48;;;10.65;;
67191;SDS011;54120;53.504;49.426;2023-11-19T13:01:15;17.40;;;11.73;;
67191;SDS011;54120;53.504;49.426;2023-11-19T13:03:43;21.85;;;11.30;;
67191;SDS011;54120;53.504;49.426;2023-11-19T13:06:12;16.45;;;11.32;;
67191;SDS011;54120;53.504;49.426;2023-11-19T13:08:41;21.00;;;11.88;;
67191;SDS011;54120;53.504;49.426;2023-11-19T13:11:13;18.02;;;12.60;;
67191;SDS011;54120;53.504;49.426;2023-11-19T13:14:01;20.17;;;12.15;;
67191;SDS011;54120;53.504;49.426;2023-11-19T13:16:35;17.08;;;12.40;;
67191;SDS011;54120;53.504;49.426;2023-11-19T13:19:03;19.77;;;13.85;;
67191;SDS011;54120;53.504;49.426;2023-11-19T13:21:29;19.75;;;12.98;;
67191;SDS011;54120;53.504;49.426;2023-11-19T13:23:55;22.90;;;13.57;;
67191;SDS011;54120;53.504;49.426;2023-11-19T13:26:22;20.42;;;14.15;;
67191;SDS011;54120;53.504;49.426;2023-11-19T13:28:49;31.27;;;15.63;;
67191;SDS011;54120;53.504;49.426;2023-11-19T13:31:15;20.45;;;14.73;;
67191;SDS011;54120;53.504;49.426;2023-11-19T13:33:42;31.65;;;15.82;;
67191;SDS011;54120;53.504;49.426;2023-11-19T13:36:08;22.92;;;15.05;;
67191;SDS011;54120;53.504;49.426;2023-11-19T13:38:35;39.17;;;16.00;;
67191;SDS011;54120;53.504;49.426;2023-11-19T13:41:03;36.35;;;15.77;;
67191;SDS011;54120;53.504;49.426;2023-11-19T13:43:34;35.83;;;16.17;;
67191;SDS011;54120;53.504;49.426;2023-11-19T13:46:00;34.88;;;15.38;;
67191;SDS011;54120;53.504;49.426;2023-11-19T13:48:27;28.08;;;16.65;;
67191;SDS011;54120;53.504;49.426;2023-11-19T13:50:57;27.60;;;15.98;;
67191;SDS011;54120;53.504;49.426;2023-11-19T13:53:24;27.33;;;16.20;;
67191;SDS011;54120;53.504;49.426;2023-11-19T13:55:50;27.77;;;16.08;;
67191;SDS011;54120;53.504;49.426;2023-11-19T13:58:16;34.70;;;17.73;;
67191;SDS011;54120;53.504;49.426;2023-11-19T14:00:43;31.50;;;16.63;;
67191;SDS011;54120;53.504;49.426;2023-11-19T14:03:09;31.35;;;17.75;;
67191;SDS011;54120;53.504;49.426;2023-11-19T14:05:38;44.13;;;17.67;;
67191;SDS011;54120;53.504;49.426;2023-11-19T14:08:06;43.63;;;19.25;;
67191;SDS011;54120;53.504;49.426;2023-11-19T14:10:39;45.22;;;17.58;;
67191;SDS011;54120;53.504;49.426;2023-11-19T14:13:06;31.42;;;18.23;;
67191;SDS011;54120;53.504;49.426;2023-11-19T14:15:33;33.65;;;17.65;;
67191;SDS011;54120;53.504;49.426;2023-11-19T14:17:59;37.20;;;17.45;;
67191;SDS011;54120;53.504;49.426;2023-11-19T14:20:25;45.78;;;20.30;;
67191;SDS011;54120;53.504;49.426;2023-11-19T14:22:52;64.28;;;19.92;;
67191;SDS011;54120;53.504;49.426;2023-11-19T14:25:18;75.70;;;21.70;;
67191;SDS011;54120;53.504;49.426;2023-11-19T14:27:44;47.97;;;19.02;;
67191;SDS011;54120;53.504;49.426;2023-11-19T14:30:14;44.35;;;20.90;;
67191;SDS011;54120;53.504;49.426;2023-11-19T14:32:40;45.97;;;20.25;;
67191;SDS011;54120;53.504;49.426;2023-11-19T14:35:11;46.95;;;18.35;;
67191;SDS011;54120;53.504;49.426;2023-11-19T14:37:37;41.28;;;22.23;;
67191;SDS011;54120;53.504;49.426;2023-11-19T14:40:03;69.47;;;19.15;;
67191;SDS011;54120;53.504;49.426;2023-11-19T14:42:31;44.03;;;21.60;;
67191;SDS011;54120;53.504;49.426;2023-11-19T14:48:03;45.63;;;17.50;;
67191;SDS011;54120;53.504;49.426;2023-11-19T14:50:30;49.80;;;21.80;;
67191;SDS011;54120;53.504;49.426;2023-11-19T14:52:56;58.38;;;21.13;;
67191;SDS011;54120;53.504;49.426;2023-11-19T14:55:22;44.00;;;21.65;;